createdAt,value
2023-01-10T00:00:55.000Z,1.2
2023-01-10T00:02:11.000Z,1.4
2023-01-10T00:03:27.000Z,1.3
2023-01-10T00:04:44.000Z,1.3
2023-01-10T00:06:00.000Z,1.5
2023-01-10T00:07:15.000Z,1.3
2023-01-10T00:08:31.000Z,1.4
2023-01-10T00:09:47.000Z,1.3
2023-01-10T00:11:04.000Z,1.4
2023-01-10T00:12:20.000Z,1.2
2023-01-10T00:13:36.000Z,1.6
2023-01-10T00:14:52.000Z,1.3
2023-01-10T00:16:09.000Z,1.3
2023-01-10T00:17:25.000Z,1.4
2023-01-10T00:18:41.000Z,1.3
2023-01-10T00:19:57.000Z,1.3
2023-01-10T00:21:14.000Z,1.4
2023-01-10T00:22:30.000Z,1.7
2023-01-10T00:23:45.000Z,1.4
2023-01-10T00:25:01.000Z,1.5
2023-01-10T00:26:18.000Z,1.7
2023-01-10T00:27:34.000Z,1.5
2023-01-10T00:28:50.000Z,1.5
2023-01-10T00:30:06.000Z,1.4
2023-01-10T00:31:22.000Z,1.3
2023-01-10T00:32:39.000Z,1.5
2023-01-10T00:33:55.000Z,1.6
2023-01-10T00:35:11.000Z,1.1
2023-01-10T00:36:27.000Z,1.3
2023-01-10T00:37:44.000Z,1.5
2023-01-10T00:39:00.000Z,1.6
2023-01-10T00:40:15.000Z,1.3
2023-01-10T00:41:31.000Z,1.4
2023-01-10T00:42:48.000Z,1.4
2023-01-10T00:44:04.000Z,1.3
2023-01-10T00:45:20.000Z,1.5
2023-01-10T00:46:36.000Z,1.8
2023-01-10T00:47:53.000Z,1.4
2023-01-10T00:49:09.000Z,1.4
2023-01-10T00:50:25.000Z,1.4
2023-01-10T00:51:41.000Z,1.2
2023-01-10T00:52:57.000Z,1.1
2023-01-10T00:54:14.000Z,2
2023-01-10T00:55:30.000Z,1.4
2023-01-10T00:56:45.000Z,1.8
2023-01-10T00:58:00.000Z,1.4
2023-01-10T00:59:16.000Z,1.9
2023-01-10T01:00:31.000Z,1.3
2023-01-10T01:01:46.000Z,1.5
2023-01-10T01:03:02.000Z,1.8
2023-01-10T01:04:19.000Z,1.6
2023-01-10T01:05:35.000Z,1.3
2023-01-10T01:06:51.000Z,1.8
2023-01-10T01:08:07.000Z,1.9
2023-01-10T01:09:24.000Z,1.7
2023-01-10T01:10:40.000Z,1.6
2023-01-10T01:11:56.000Z,2
2023-01-10T01:13:12.000Z,1.5
2023-01-10T01:14:29.000Z,1.6
2023-01-10T01:15:45.000Z,1.7
2023-01-10T01:17:01.000Z,2
2023-01-10T01:18:16.000Z,1.6
2023-01-10T01:19:32.000Z,1.6
2023-01-10T01:20:49.000Z,1.6
2023-01-10T01:22:05.000Z,1.7
2023-01-10T01:23:21.000Z,1.6
2023-01-10T01:24:37.000Z,1.5
2023-01-10T01:25:54.000Z,2
2023-01-10T01:27:10.000Z,2
2023-01-10T01:28:26.000Z,1.9
2023-01-10T01:29:42.000Z,1.9
2023-01-10T01:30:59.000Z,1.6
2023-01-10T01:32:15.000Z,1.8
2023-01-10T01:33:31.000Z,2.3
2023-01-10T01:34:46.000Z,1.9
2023-01-10T01:36:03.000Z,1.3
2023-01-10T01:37:19.000Z,1.8
2023-01-10T01:38:35.000Z,1.7
2023-01-10T01:39:51.000Z,2.1
2023-01-10T01:41:07.000Z,2.2
2023-01-10T01:42:24.000Z,1.8
2023-01-10T01:43:40.000Z,1.6
2023-01-10T01:44:56.000Z,1.5
2023-01-10T01:46:12.000Z,2.2
2023-01-10T01:47:29.000Z,1.9
2023-01-10T01:48:45.000Z,2.2
2023-01-10T01:50:01.000Z,1.9
2023-01-10T01:51:16.000Z,1.5
2023-01-10T01:52:33.000Z,2
2023-01-10T01:53:49.000Z,1.6
2023-01-10T01:55:05.000Z,1.8
2023-01-10T01:56:21.000Z,1.2
2023-01-10T01:57:38.000Z,1.6
2023-01-10T01:58:54.000Z,2.1
2023-01-10T02:00:10.000Z,1.9
2023-01-10T02:01:26.000Z,1.4
2023-01-10T02:02:42.000Z,1.6
2023-01-10T02:03:59.000Z,1.4
2023-01-10T02:05:15.000Z,1.9
2023-01-10T02:06:31.000Z,1.1
2023-01-10T02:07:46.000Z,1.8
2023-01-10T02:09:03.000Z,1.6
2023-01-10T02:10:19.000Z,1.6
2023-01-10T02:11:35.000Z,1.8
2023-01-10T02:12:51.000Z,2
2023-01-10T02:14:08.000Z,1.5
2023-01-10T02:15:23.000Z,1.6
2023-01-10T02:16:38.000Z,1.6
2023-01-10T02:17:53.000Z,1.7
2023-01-10T02:19:09.000Z,1.9
2023-01-10T02:20:25.000Z,1.3
2023-01-10T02:21:41.000Z,1.4
2023-01-10T02:22:57.000Z,1.5
2023-01-10T02:24:14.000Z,1.4
2023-01-10T02:25:30.000Z,1.6
2023-01-10T02:26:46.000Z,1.2
2023-01-10T02:28:02.000Z,1.2
2023-01-10T02:29:18.000Z,1.5
2023-01-10T02:30:35.000Z,1.9
2023-01-10T02:31:51.000Z,1.4
2023-01-10T02:33:07.000Z,1.3
2023-01-10T02:34:23.000Z,1.2
2023-01-10T02:35:39.000Z,1.5
2023-01-10T02:36:55.000Z,1.5
2023-01-10T02:38:11.000Z,1.2
2023-01-10T02:39:27.000Z,1.4
2023-01-10T02:40:44.000Z,1.3
2023-01-10T02:42:00.000Z,1.2
2023-01-10T02:43:16.000Z,1.6
2023-01-10T02:44:31.000Z,1.2
2023-01-10T02:45:47.000Z,2.6
2023-01-10T02:47:02.000Z,2
2023-01-10T02:48:17.000Z,1.9
2023-01-10T02:49:33.000Z,1.3
2023-01-10T02:50:50.000Z,2.4
2023-01-10T02:52:06.000Z,1.4
2023-01-10T02:53:22.000Z,1.4
2023-01-10T02:54:38.000Z,1.6
2023-01-10T02:55:55.000Z,1.5
2023-01-10T02:57:11.000Z,1.8
2023-01-10T02:58:27.000Z,1.1
2023-01-10T02:59:42.000Z,1.5
2023-01-10T03:00:58.000Z,1.9
2023-01-10T03:02:15.000Z,1.5
2023-01-10T03:03:31.000Z,1.8
2023-01-10T03:04:47.000Z,1.3
2023-01-10T03:06:03.000Z,0.9
2023-01-10T03:07:20.000Z,1.9
2023-01-10T03:08:36.000Z,1.5
2023-01-10T03:09:52.000Z,1.1
2023-01-10T03:11:08.000Z,1
2023-01-10T03:12:25.000Z,1.5
2023-01-10T03:13:40.000Z,1.2
2023-01-10T03:14:55.000Z,1.2
2023-01-10T03:16:10.000Z,1.4
2023-01-10T03:17:26.000Z,1.4
2023-01-10T03:18:42.000Z,11.4
2023-01-10T03:19:58.000Z,4.1
2023-01-10T03:21:14.000Z,1.9
2023-01-10T03:22:31.000Z,2.2
2023-01-10T03:23:47.000Z,2.8
2023-01-10T03:25:03.000Z,1.1
2023-01-10T03:26:19.000Z,1.3
2023-01-10T03:27:35.000Z,1.2
2023-01-10T03:28:52.000Z,1.1
2023-01-10T03:30:08.000Z,1.3
2023-01-10T03:31:24.000Z,0.9
2023-01-10T03:32:40.000Z,1
2023-01-10T03:33:56.000Z,1.4
2023-01-10T03:35:12.000Z,0.9
2023-01-10T03:36:28.000Z,1.2
2023-01-10T03:37:44.000Z,1.1
2023-01-10T03:39:01.000Z,1.2
2023-01-10T03:40:17.000Z,1.3
2023-01-10T03:41:33.000Z,1
2023-01-10T03:42:49.000Z,1.3
2023-01-10T03:44:06.000Z,1.2
2023-01-10T03:45:22.000Z,1.1
2023-01-10T03:46:38.000Z,3.7
2023-01-10T03:47:54.000Z,1.6
2023-01-10T03:49:10.000Z,1.5
2023-01-10T03:50:26.000Z,1
2023-01-10T03:51:42.000Z,1.1
2023-01-10T03:52:58.000Z,1.1
2023-01-10T03:54:14.000Z,1.4
2023-01-10T03:55:30.000Z,1.3
2023-01-10T03:56:45.000Z,1.1
2023-01-10T03:58:00.000Z,1
2023-01-10T03:59:15.000Z,1.1
2023-01-10T04:00:32.000Z,0.8
2023-01-10T04:01:48.000Z,1.1
2023-01-10T04:03:04.000Z,1
2023-01-10T04:04:20.000Z,1.1
2023-01-10T04:05:37.000Z,1
2023-01-10T04:06:53.000Z,1.5
2023-01-10T04:08:09.000Z,1
2023-01-10T04:09:25.000Z,1.2
2023-01-10T04:10:42.000Z,1.2
2023-01-10T04:11:58.000Z,1.5
2023-01-10T04:13:14.000Z,0.9
2023-01-10T04:14:30.000Z,1
2023-01-10T04:15:46.000Z,1
2023-01-10T04:17:02.000Z,0.9
2023-01-10T04:18:18.000Z,0.7
2023-01-10T04:19:34.000Z,1
2023-01-10T04:20:50.000Z,1.5
2023-01-10T04:22:07.000Z,0.8
2023-01-10T04:23:23.000Z,1
2023-01-10T04:24:38.000Z,0.8
2023-01-10T04:25:53.000Z,1
2023-01-10T04:27:09.000Z,0.8
2023-01-10T04:28:24.000Z,1.1
2023-01-10T04:29:40.000Z,1.2
2023-01-10T04:30:56.000Z,1.2
2023-01-10T04:32:13.000Z,1.1
2023-01-10T04:33:29.000Z,1.1
2023-01-10T04:34:45.000Z,1
2023-01-10T04:36:01.000Z,1.2
2023-01-10T04:37:18.000Z,0.9
2023-01-10T04:38:34.000Z,1.2
2023-01-10T04:39:50.000Z,1.1
2023-01-10T04:41:06.000Z,1.3
2023-01-10T04:42:23.000Z,1
2023-01-10T04:43:39.000Z,1
2023-01-10T04:44:54.000Z,0.8
2023-01-10T04:46:10.000Z,0.8
2023-01-10T04:47:26.000Z,0.8
2023-01-10T04:48:43.000Z,0.9
2023-01-10T04:49:59.000Z,0.7
2023-01-10T04:51:15.000Z,1.2
2023-01-10T04:52:31.000Z,0.9
2023-01-10T04:53:47.000Z,1
2023-01-10T04:55:02.000Z,0.9
2023-01-10T04:56:18.000Z,0.9
2023-01-10T04:57:33.000Z,0.7
2023-01-10T04:58:49.000Z,1
2023-01-10T05:00:05.000Z,1
2023-01-10T05:01:21.000Z,1.2
2023-01-10T05:02:37.000Z,1.1
2023-01-10T05:03:54.000Z,0.9
2023-01-10T05:05:10.000Z,1.2
2023-01-10T05:06:26.000Z,1.1
2023-01-10T05:07:42.000Z,1.1
2023-01-10T05:08:59.000Z,1
2023-01-10T05:10:15.000Z,1.4
2023-01-10T05:11:31.000Z,1
2023-01-10T05:12:47.000Z,1.2
2023-01-10T05:14:04.000Z,1.1
2023-01-10T05:15:19.000Z,1.4
2023-01-10T05:16:35.000Z,1.1
2023-01-10T05:17:51.000Z,1.1
2023-01-10T05:19:07.000Z,1
2023-01-10T05:20:24.000Z,1.2
2023-01-10T05:21:40.000Z,1.1
2023-01-10T05:22:56.000Z,0.9
2023-01-10T05:24:11.000Z,1
2023-01-10T05:25:27.000Z,1.1
2023-01-10T05:26:42.000Z,1
2023-01-10T05:27:57.000Z,1.3
2023-01-10T05:29:13.000Z,1.2
2023-01-10T05:30:30.000Z,1.1
2023-01-10T05:31:46.000Z,1.4
2023-01-10T05:33:02.000Z,1.6
2023-01-10T05:34:18.000Z,1.1
2023-01-10T05:35:35.000Z,1.3
2023-01-10T05:36:51.000Z,1.1
2023-01-10T05:38:07.000Z,1
2023-01-10T05:39:23.000Z,1.2
2023-01-10T05:40:40.000Z,1.2
2023-01-10T05:41:56.000Z,1
2023-01-10T05:43:12.000Z,1.4
2023-01-10T05:44:27.000Z,1.3
2023-01-10T05:45:43.000Z,0.9
2023-01-10T05:47:00.000Z,1.2
2023-01-10T05:48:16.000Z,1.6
2023-01-10T05:49:32.000Z,1.9
2023-01-10T05:50:48.000Z,1.3
2023-01-10T05:52:05.000Z,1.4
2023-01-10T05:53:20.000Z,1.3
2023-01-10T05:54:35.000Z,1.4
2023-01-10T05:55:50.000Z,1.7
2023-01-10T05:57:06.000Z,1.5
2023-01-10T05:58:22.000Z,1.6
2023-01-10T05:59:38.000Z,1.2
2023-01-10T06:00:54.000Z,1.4
2023-01-10T06:02:11.000Z,1.8
2023-01-10T06:03:27.000Z,1.3
2023-01-10T06:04:43.000Z,1.4
2023-01-10T06:05:59.000Z,0.9
2023-01-10T06:07:16.000Z,1.6
2023-01-10T06:08:32.000Z,1.2
2023-01-10T06:09:48.000Z,1
2023-01-10T06:11:04.000Z,1.1
2023-01-10T06:12:20.000Z,1.2
2023-01-10T06:13:36.000Z,1.2
2023-01-10T06:14:52.000Z,1.2
2023-01-10T06:16:08.000Z,1.1
2023-01-10T06:17:24.000Z,1.5
2023-01-10T06:18:41.000Z,1.1
2023-01-10T06:19:57.000Z,1.1
2023-01-10T06:21:13.000Z,1.2
2023-01-10T06:22:28.000Z,1.6
2023-01-10T06:23:44.000Z,1.3
2023-01-10T06:25:00.000Z,1.1
2023-01-10T06:26:16.000Z,1
2023-01-10T06:27:31.000Z,1.2
2023-01-10T06:28:47.000Z,1.3
2023-01-10T06:30:03.000Z,1.3
2023-01-10T06:31:19.000Z,1.3
2023-01-10T06:32:35.000Z,1.3
2023-01-10T06:33:52.000Z,1.2
2023-01-10T06:35:08.000Z,1.2
2023-01-10T06:36:24.000Z,1.4
2023-01-10T06:37:40.000Z,1.1
2023-01-10T06:38:57.000Z,0.7
2023-01-10T06:40:13.000Z,1
2023-01-10T06:41:29.000Z,1.3
2023-01-10T06:42:45.000Z,1.1
2023-01-10T06:44:01.000Z,1.5
2023-01-10T06:45:17.000Z,1
2023-01-10T06:46:33.000Z,1.3
2023-01-10T06:47:49.000Z,1.6
2023-01-10T06:49:05.000Z,1
2023-01-10T06:50:22.000Z,1.4
2023-01-10T06:51:38.000Z,1.3
2023-01-10T06:52:54.000Z,1.4
2023-01-10T06:54:09.000Z,1
2023-01-10T06:55:25.000Z,1.6
2023-01-10T06:56:40.000Z,1.2
2023-01-10T06:57:55.000Z,1.5
2023-01-10T06:59:11.000Z,1.5
2023-01-10T07:00:28.000Z,1.4
2023-01-10T07:01:44.000Z,1
2023-01-10T07:03:00.000Z,1.1
2023-01-10T07:04:16.000Z,0.8
2023-01-10T07:05:33.000Z,1
2023-01-10T07:06:49.000Z,1.4
2023-01-10T07:08:05.000Z,1.1
2023-01-10T07:09:21.000Z,1.3
2023-01-10T07:10:37.000Z,1.2
2023-01-10T07:11:54.000Z,0.9
2023-01-10T07:13:10.000Z,1
2023-01-10T07:14:25.000Z,1.3
2023-01-10T07:15:41.000Z,1.4
2023-01-10T07:16:58.000Z,1.1
2023-01-10T07:18:14.000Z,1.2
2023-01-10T07:19:30.000Z,1.1
2023-01-10T07:20:46.000Z,1.4
2023-01-10T07:22:03.000Z,1
2023-01-10T07:23:18.000Z,1.4
2023-01-10T07:24:33.000Z,1.2
2023-01-10T07:25:48.000Z,1.2
2023-01-10T07:27:04.000Z,0.9
2023-01-10T07:28:20.000Z,1
2023-01-10T07:29:36.000Z,0.9
2023-01-10T07:30:52.000Z,1.1
2023-01-10T07:32:09.000Z,1
2023-01-10T07:33:25.000Z,1.6
2023-01-10T07:34:41.000Z,1.7
2023-01-10T07:35:57.000Z,1.5
2023-01-10T07:37:14.000Z,1.3
2023-01-10T07:38:30.000Z,1.6
2023-01-10T07:39:46.000Z,1.5
2023-01-10T07:41:02.000Z,1.8
2023-01-10T07:42:18.000Z,1.6
2023-01-10T07:43:34.000Z,1.8
2023-01-10T07:44:50.000Z,1.9
2023-01-10T07:46:06.000Z,1.4
2023-01-10T07:47:22.000Z,1.6
2023-01-10T07:48:39.000Z,1.5
2023-01-10T07:49:55.000Z,1.7
2023-01-10T07:51:11.000Z,1.4
2023-01-10T07:52:26.000Z,1.6
2023-01-10T07:53:42.000Z,1.6
2023-01-10T07:54:58.000Z,2.7
2023-01-10T07:56:13.000Z,2.2
2023-01-10T07:57:28.000Z,2.3
2023-01-10T07:58:45.000Z,2.3
2023-01-10T08:00:01.000Z,3.3
2023-01-10T08:01:17.000Z,2.4
2023-01-10T08:02:33.000Z,2.3
2023-01-10T08:03:50.000Z,2.8
2023-01-10T08:05:06.000Z,2.9
2023-01-10T08:06:22.000Z,2.2
2023-01-10T08:07:38.000Z,2.4
2023-01-10T08:08:54.000Z,2.7
2023-01-10T08:10:11.000Z,2.5
2023-01-10T08:11:27.000Z,2.5
2023-01-10T08:12:43.000Z,2.8
2023-01-10T08:13:58.000Z,2.6
2023-01-10T08:15:15.000Z,2.5
2023-01-10T08:16:31.000Z,2.3
2023-01-10T08:17:47.000Z,2.6
2023-01-10T08:19:03.000Z,1.9
2023-01-10T08:20:20.000Z,2.7
2023-01-10T08:21:36.000Z,2.5
2023-01-10T08:22:51.000Z,2.3
2023-01-10T08:24:06.000Z,2.4
2023-01-10T08:25:23.000Z,2.7
2023-01-10T08:26:38.000Z,2.9
2023-01-10T08:27:53.000Z,2.7
2023-01-10T08:29:09.000Z,2.6
2023-01-10T08:30:26.000Z,2.7
2023-01-10T08:31:42.000Z,2.9
2023-01-10T08:32:58.000Z,2.4
2023-01-10T08:34:14.000Z,2.7
2023-01-10T08:35:30.000Z,2.5
2023-01-10T08:36:47.000Z,2.8
2023-01-10T08:38:03.000Z,2.6
2023-01-10T08:39:19.000Z,3.1
2023-01-10T08:40:35.000Z,2.5
2023-01-10T08:41:52.000Z,2.7
2023-01-10T08:43:08.000Z,3.1
2023-01-10T08:44:23.000Z,3
2023-01-10T08:45:39.000Z,2.4
2023-01-10T08:46:56.000Z,2.8
2023-01-10T08:48:12.000Z,3.1
2023-01-10T08:49:28.000Z,2.5
2023-01-10T08:50:44.000Z,4.6
2023-01-10T08:52:01.000Z,2.9
2023-01-10T08:53:17.000Z,3
2023-01-10T08:54:33.000Z,3.1
2023-01-10T08:55:49.000Z,3.1
2023-01-10T08:57:05.000Z,2.9
2023-01-10T08:58:22.000Z,2.8
2023-01-10T08:59:38.000Z,2.8
2023-01-10T09:00:53.000Z,3
2023-01-10T09:02:09.000Z,3.2
2023-01-10T09:03:26.000Z,3.6
2023-01-10T09:04:42.000Z,2.7
2023-01-10T09:05:58.000Z,2.6
2023-01-10T09:07:14.000Z,2.7
2023-01-10T09:08:31.000Z,2.5
2023-01-10T09:09:47.000Z,2.7
2023-01-10T09:11:03.000Z,2.6
2023-01-10T09:12:19.000Z,2.8
2023-01-10T09:13:36.000Z,2.5
2023-01-10T09:14:52.000Z,2.9
2023-01-10T09:16:08.000Z,2.8
2023-01-10T09:17:23.000Z,3
2023-01-10T09:18:39.000Z,2.8
2023-01-10T09:19:56.000Z,2.5
2023-01-10T09:21:12.000Z,2.6
2023-01-10T09:22:28.000Z,2.4
2023-01-10T09:23:44.000Z,2.6
2023-01-10T09:25:01.000Z,2.9
2023-01-10T09:26:17.000Z,2.4
2023-01-10T09:27:33.000Z,2.8
2023-01-10T09:28:49.000Z,2.5
2023-01-10T09:30:06.000Z,3
2023-01-10T09:31:22.000Z,2.7
2023-01-10T09:32:38.000Z,2.6
2023-01-10T09:33:53.000Z,2.8
2023-01-10T09:35:10.000Z,2.5
2023-01-10T09:36:25.000Z,2.9
2023-01-10T09:37:40.000Z,2.6
2023-01-10T09:38:56.000Z,2.8
2023-01-10T09:40:12.000Z,2.9
2023-01-10T09:41:27.000Z,3.1
2023-01-10T09:42:43.000Z,2.7
2023-01-10T09:43:59.000Z,2.7
2023-01-10T09:45:16.000Z,2.8
2023-01-10T09:46:32.000Z,2.6
2023-01-10T09:47:48.000Z,2.6
2023-01-10T09:49:04.000Z,2.8
2023-01-10T09:50:20.000Z,2.7
2023-01-10T09:51:37.000Z,2.4
2023-01-10T09:52:53.000Z,2.9
2023-01-10T09:54:09.000Z,2.9
2023-01-10T09:55:25.000Z,2.7
2023-01-10T09:56:42.000Z,2.6
2023-01-10T09:57:57.000Z,2.9
2023-01-10T09:59:13.000Z,3.3
2023-01-10T10:00:29.000Z,3
2023-01-10T10:01:46.000Z,2.9
2023-01-10T10:03:02.000Z,3
2023-01-10T10:04:18.000Z,3.1
2023-01-10T10:05:34.000Z,3
2023-01-10T10:06:50.000Z,2.8
2023-01-10T10:08:05.000Z,3.1
2023-01-10T10:09:20.000Z,3.1
2023-01-10T10:10:35.000Z,3.2
2023-01-10T10:11:52.000Z,3.5
2023-01-10T10:13:08.000Z,3.1
2023-01-10T10:14:24.000Z,3.4
2023-01-10T10:15:40.000Z,3.5
2023-01-10T10:16:56.000Z,3.5
2023-01-10T10:18:13.000Z,3.4
2023-01-10T10:19:29.000Z,3.5
2023-01-10T10:20:45.000Z,3.6
2023-01-10T10:22:01.000Z,3.3
2023-01-10T10:23:18.000Z,3.2
2023-01-10T10:24:34.000Z,3.1
2023-01-10T10:25:50.000Z,3.6
2023-01-10T10:27:05.000Z,2.9
2023-01-10T10:28:22.000Z,3.3
2023-01-10T10:29:38.000Z,3.7
2023-01-10T10:30:54.000Z,3.6
2023-01-10T10:32:10.000Z,3.8
2023-01-10T10:33:27.000Z,3.5
2023-01-10T10:34:43.000Z,3.4
2023-01-10T10:35:58.000Z,3.2
2023-01-10T10:37:13.000Z,3.5
2023-01-10T10:38:30.000Z,3.6
2023-01-10T10:39:45.000Z,3.4
2023-01-10T10:41:00.000Z,4.1
2023-01-10T10:42:16.000Z,3.9
2023-01-10T10:43:32.000Z,3.8
2023-01-10T10:44:49.000Z,3.3
2023-01-10T10:46:05.000Z,3.8
2023-01-10T10:47:21.000Z,3.9
2023-01-10T10:48:37.000Z,3.4
2023-01-10T10:49:54.000Z,4.1
2023-01-10T10:51:10.000Z,4
2023-01-10T10:52:26.000Z,3.9
2023-01-10T10:53:42.000Z,4.1
2023-01-10T10:54:59.000Z,4
2023-01-10T10:56:15.000Z,4.1
2023-01-10T10:57:30.000Z,4.6
2023-01-10T10:58:46.000Z,3.6
2023-01-10T11:00:03.000Z,4.4
2023-01-10T11:01:19.000Z,3.9
2023-01-10T11:02:35.000Z,4.1
2023-01-10T11:03:51.000Z,4.3
2023-01-10T11:05:07.000Z,4
2023-01-10T11:06:23.000Z,4
2023-01-10T11:07:38.000Z,3.7
2023-01-10T11:08:53.000Z,3.8
2023-01-10T11:10:09.000Z,4.5
2023-01-10T11:11:25.000Z,4.2
2023-01-10T11:12:41.000Z,3.9
2023-01-10T11:13:57.000Z,4
2023-01-10T11:15:13.000Z,3.7
2023-01-10T11:16:30.000Z,3.8
2023-01-10T11:17:46.000Z,3.8
2023-01-10T11:19:02.000Z,4.1
2023-01-10T11:20:18.000Z,4.6
2023-01-10T11:21:35.000Z,5
2023-01-10T11:22:51.000Z,7.3
2023-01-10T11:24:07.000Z,7.6
2023-01-10T11:25:23.000Z,4.8
2023-01-10T11:26:39.000Z,4.4
2023-01-10T11:27:55.000Z,4.4
2023-01-10T11:29:10.000Z,4.1
2023-01-10T11:30:26.000Z,4.7
2023-01-10T11:31:43.000Z,4.2
2023-01-10T11:32:59.000Z,4.4
2023-01-10T11:34:15.000Z,4.5
2023-01-10T11:35:30.000Z,4.1
2023-01-10T11:36:46.000Z,4.4
2023-01-10T11:38:01.000Z,4.2
2023-01-10T11:39:16.000Z,4.5
2023-01-10T11:40:32.000Z,4.5
2023-01-10T11:41:48.000Z,4.1
2023-01-10T11:43:05.000Z,4.3
2023-01-10T11:44:21.000Z,3.9
2023-01-10T11:45:37.000Z,4.3
2023-01-10T11:46:53.000Z,4.6
2023-01-10T11:48:10.000Z,3.6
2023-01-10T11:49:26.000Z,4.5
2023-01-10T11:50:42.000Z,7.3
2023-01-10T11:51:58.000Z,4.9
2023-01-10T11:53:15.000Z,4.4
2023-01-10T11:54:31.000Z,5.3
2023-01-10T11:55:46.000Z,4.2
2023-01-10T11:57:02.000Z,3.7
2023-01-10T11:58:19.000Z,3.3
2023-01-10T11:59:35.000Z,3.6
2023-01-10T12:00:51.000Z,3.9
2023-01-10T12:02:07.000Z,3.9
2023-01-10T12:03:23.000Z,3.3
2023-01-10T12:04:39.000Z,3.3
2023-01-10T12:05:54.000Z,3.2
2023-01-10T12:07:10.000Z,3.3
2023-01-10T12:08:25.000Z,2.7
2023-01-10T12:09:41.000Z,3.1
2023-01-10T12:10:57.000Z,3.4
2023-01-10T12:12:13.000Z,2.9
2023-01-10T12:13:29.000Z,3.1
2023-01-10T12:14:46.000Z,3.3
2023-01-10T12:16:02.000Z,3.2
2023-01-10T12:17:18.000Z,2.8
2023-01-10T12:18:34.000Z,3.2
2023-01-10T12:19:51.000Z,3.2
2023-01-10T12:21:07.000Z,3.1
2023-01-10T12:22:23.000Z,2.9
2023-01-10T12:23:39.000Z,3.3
2023-01-10T12:24:56.000Z,3.1
2023-01-10T12:26:11.000Z,2.7
2023-01-10T12:27:27.000Z,2.5
2023-01-10T12:28:43.000Z,2.5
2023-01-10T12:29:59.000Z,2.9
2023-01-10T12:31:16.000Z,2.9
2023-01-10T12:32:32.000Z,3.4
2023-01-10T12:33:48.000Z,3.2
2023-01-10T12:35:03.000Z,2.5
2023-01-10T12:36:19.000Z,2.8
2023-01-10T12:37:35.000Z,2.7
2023-01-10T12:38:50.000Z,2.9
2023-01-10T12:40:05.000Z,2.7
2023-01-10T12:41:22.000Z,2.5
2023-01-10T12:42:38.000Z,2.6
2023-01-10T12:43:54.000Z,2.7
2023-01-10T12:45:10.000Z,2.4
2023-01-10T12:46:27.000Z,2.6
2023-01-10T12:47:43.000Z,2.2
2023-01-10T12:48:59.000Z,2.6
2023-01-10T12:50:15.000Z,2.1
2023-01-10T12:51:32.000Z,1.9
2023-01-10T12:52:48.000Z,2.2
2023-01-10T12:54:04.000Z,2.7
2023-01-10T12:55:20.000Z,2.1
2023-01-10T12:56:36.000Z,2.5
2023-01-10T12:57:52.000Z,2.5
2023-01-10T12:59:08.000Z,2.3
2023-01-10T13:00:24.000Z,2.2
2023-01-10T13:01:40.000Z,2.4
2023-01-10T13:02:57.000Z,2.6
2023-01-10T13:04:13.000Z,2.1
2023-01-10T13:05:29.000Z,2.4
2023-01-10T13:06:45.000Z,2.2
2023-01-10T13:08:02.000Z,2.5
2023-01-10T13:09:17.000Z,2.5
2023-01-10T13:10:32.000Z,2.6
2023-01-10T13:11:47.000Z,2.4
2023-01-10T13:13:03.000Z,1.9
2023-01-10T13:14:19.000Z,2.4
2023-01-10T13:15:35.000Z,2.4
2023-01-10T13:16:51.000Z,2.5
2023-01-10T13:18:08.000Z,2.2
2023-01-10T13:19:24.000Z,2.3
2023-01-10T13:20:40.000Z,2.1
2023-01-10T13:21:56.000Z,2.1
2023-01-10T13:23:13.000Z,1.9
2023-01-10T13:24:29.000Z,2.1
2023-01-10T13:25:45.000Z,2.5
2023-01-10T13:27:01.000Z,16
2023-01-10T13:28:17.000Z,2.3
2023-01-10T13:29:33.000Z,2.2
2023-01-10T13:30:49.000Z,2.3
2023-01-10T13:32:05.000Z,2.1
2023-01-10T13:33:21.000Z,2.2
2023-01-10T13:34:38.000Z,2.3
2023-01-10T13:35:54.000Z,2.4
2023-01-10T13:37:10.000Z,1.8
2023-01-10T13:38:25.000Z,2.1
2023-01-10T13:39:41.000Z,1.7
2023-01-10T13:40:56.000Z,1.8
2023-01-10T13:42:11.000Z,1.7
2023-01-10T13:43:27.000Z,2.1
2023-01-10T13:44:44.000Z,2.3
2023-01-10T13:46:00.000Z,2.1
2023-01-10T13:47:16.000Z,2.1
2023-01-10T13:48:32.000Z,1.8
2023-01-10T13:49:49.000Z,1.9
2023-01-10T13:51:05.000Z,1.7
2023-01-10T13:52:21.000Z,1.9
2023-01-10T13:53:37.000Z,2.1
2023-01-10T13:54:53.000Z,2.3
2023-01-10T13:56:10.000Z,1.7
2023-01-10T13:57:26.000Z,1.9
2023-01-10T13:58:41.000Z,1.9
2023-01-10T13:59:57.000Z,2
2023-01-10T14:01:14.000Z,1.9
2023-01-10T14:02:30.000Z,2.1
2023-01-10T14:03:46.000Z,1.9
2023-01-10T14:05:02.000Z,1.9
2023-01-10T14:06:19.000Z,1.9
2023-01-10T14:07:35.000Z,1.9
2023-01-10T14:08:51.000Z,2
2023-01-10T14:10:07.000Z,1.9
2023-01-10T14:11:24.000Z,2.1
2023-01-10T14:12:40.000Z,2.1
2023-01-10T14:13:56.000Z,2
2023-01-10T14:15:11.000Z,1.8
2023-01-10T14:16:27.000Z,1.8
2023-01-10T14:17:44.000Z,2.3
2023-01-10T14:19:00.000Z,2.2
2023-01-10T14:20:16.000Z,2.1
2023-01-10T14:21:32.000Z,2
2023-01-10T14:22:49.000Z,2
2023-01-10T14:24:05.000Z,2
2023-01-10T14:25:21.000Z,2.1
2023-01-10T14:26:37.000Z,1.7
2023-01-10T14:27:54.000Z,2
2023-01-10T14:29:09.000Z,2.1
2023-01-10T14:30:24.000Z,2
2023-01-10T14:31:39.000Z,2.1
2023-01-10T14:32:55.000Z,1.9
2023-01-10T14:34:11.000Z,1.9
2023-01-10T14:35:27.000Z,1.7
2023-01-10T14:36:43.000Z,1.8
2023-01-10T14:38:00.000Z,2.2
2023-01-10T14:39:16.000Z,2
2023-01-10T14:40:32.000Z,2.1
2023-01-10T14:41:48.000Z,1.8
2023-01-10T14:43:04.000Z,2.2
2023-01-10T14:44:21.000Z,1.7
2023-01-10T14:45:37.000Z,2
2023-01-10T14:46:53.000Z,2
2023-01-10T14:48:09.000Z,4.2
2023-01-10T14:49:25.000Z,3.1
2023-01-10T14:50:41.000Z,2.1
2023-01-10T14:51:57.000Z,2.2
2023-01-10T14:53:13.000Z,2
2023-01-10T14:54:30.000Z,2.1
2023-01-10T14:55:46.000Z,2
2023-01-10T14:57:02.000Z,2
2023-01-10T14:58:17.000Z,2.1
2023-01-10T14:59:33.000Z,1.9
2023-01-10T15:00:49.000Z,1.8
2023-01-10T15:02:04.000Z,1.8
2023-01-10T15:03:19.000Z,1.8
2023-01-10T15:04:36.000Z,2.3
2023-01-10T15:05:52.000Z,1.8
2023-01-10T15:07:08.000Z,1.9
2023-01-10T15:08:24.000Z,2
2023-01-10T15:09:41.000Z,1.8
2023-01-10T15:10:57.000Z,1.8
2023-01-10T15:12:13.000Z,1.9
2023-01-10T15:13:29.000Z,1.8
2023-01-10T15:14:45.000Z,1.5
2023-01-10T15:16:02.000Z,1.8
2023-01-10T15:17:18.000Z,1.7
2023-01-10T15:18:34.000Z,1.9
2023-01-10T15:19:49.000Z,1.7
2023-01-10T15:21:06.000Z,1.7
2023-01-10T15:22:22.000Z,1.5
2023-01-10T15:23:38.000Z,1.6
2023-01-10T15:24:54.000Z,2
2023-01-10T15:26:11.000Z,1.7
2023-01-10T15:27:27.000Z,1.8
2023-01-10T15:28:42.000Z,1.7
2023-01-10T15:29:57.000Z,1.9
2023-01-10T15:31:14.000Z,1.6
2023-01-10T15:32:29.000Z,1.8
2023-01-10T15:33:44.000Z,1.7
2023-01-10T15:35:00.000Z,1.5
2023-01-10T15:36:17.000Z,1.8
2023-01-10T15:37:33.000Z,1.5
2023-01-10T15:38:49.000Z,1.9
2023-01-10T15:40:05.000Z,1.9
2023-01-10T15:41:21.000Z,1.7
2023-01-10T15:42:38.000Z,1.6
2023-01-10T15:43:53.000Z,1.5
2023-01-10T15:45:09.000Z,1.4
2023-01-10T15:46:25.000Z,1.1
2023-01-10T15:47:42.000Z,1.8
2023-01-10T15:48:58.000Z,1.9
2023-01-10T15:50:14.000Z,1.6
2023-01-10T15:51:30.000Z,1.8
2023-01-10T15:52:47.000Z,1.7
2023-01-10T15:54:03.000Z,1.7
2023-01-10T15:55:19.000Z,1.4
2023-01-10T15:56:35.000Z,1.9
2023-01-10T15:57:52.000Z,1.5
2023-01-10T15:59:07.000Z,1.1
2023-01-10T16:00:22.000Z,1.2
2023-01-10T16:01:38.000Z,1.5
2023-01-10T16:02:54.000Z,1.3
2023-01-10T16:04:09.000Z,1.4
2023-01-10T16:05:25.000Z,1.8
2023-01-10T16:06:41.000Z,1.6
2023-01-10T16:07:58.000Z,1.5
2023-01-10T16:09:14.000Z,1.6
2023-01-10T16:10:30.000Z,1.5
2023-01-10T16:11:46.000Z,1.2
2023-01-10T16:13:02.000Z,1.8
2023-01-10T16:14:19.000Z,1.5
2023-01-10T16:15:35.000Z,1.5
2023-01-10T16:16:51.000Z,1.2
2023-01-10T16:18:07.000Z,1.4
2023-01-10T16:19:24.000Z,1.7
2023-01-10T16:20:39.000Z,1.6
2023-01-10T16:21:55.000Z,1.4
2023-01-10T16:23:11.000Z,1.3
2023-01-10T16:24:28.000Z,2
2023-01-10T16:25:44.000Z,1.5
2023-01-10T16:27:00.000Z,1.8
2023-01-10T16:28:16.000Z,1.3
2023-01-10T16:29:32.000Z,1.6
2023-01-10T16:30:47.000Z,1.6
2023-01-10T16:32:03.000Z,1.1
2023-01-10T16:33:18.000Z,1.5
2023-01-10T16:34:34.000Z,1.5
2023-01-10T16:35:50.000Z,1.8
2023-01-10T16:37:06.000Z,1.3
2023-01-10T16:38:22.000Z,1.3
2023-01-10T16:39:38.000Z,1.3
2023-01-10T16:40:55.000Z,1.3
2023-01-10T16:42:11.000Z,1.6
2023-01-10T16:43:27.000Z,1.5
2023-01-10T16:44:43.000Z,1.4
2023-01-10T16:46:00.000Z,1.3
2023-01-10T16:47:16.000Z,1.6
2023-01-10T16:48:32.000Z,1.3
2023-01-10T16:49:48.000Z,1.7
2023-01-10T16:51:04.000Z,1.6
2023-01-10T16:52:20.000Z,1.5
2023-01-10T16:53:36.000Z,1.3
2023-01-10T16:54:52.000Z,1.4
2023-01-10T16:56:09.000Z,1.8
2023-01-10T16:57:25.000Z,1.5
2023-01-10T16:58:41.000Z,1.2
2023-01-10T16:59:56.000Z,1.4
2023-01-10T17:01:12.000Z,2
2023-01-10T17:02:28.000Z,1.6
2023-01-10T17:03:43.000Z,1.3
2023-01-10T17:04:58.000Z,1.3
2023-01-10T17:06:14.000Z,1.3
2023-01-10T17:07:31.000Z,1.4
2023-01-10T17:08:47.000Z,1.8
2023-01-10T17:10:03.000Z,1.3
2023-01-10T17:11:19.000Z,1.3
2023-01-10T17:12:36.000Z,1.3
2023-01-10T17:13:52.000Z,1.7
2023-01-10T17:15:08.000Z,1.6
2023-01-10T17:16:24.000Z,1.7
2023-01-10T17:17:41.000Z,1.7
2023-01-10T17:18:57.000Z,1.6
2023-01-10T17:20:13.000Z,1.4
2023-01-10T17:21:28.000Z,1.7
2023-01-10T17:22:45.000Z,1.6
2023-01-10T17:24:01.000Z,1.8
2023-01-10T17:25:17.000Z,1.7
2023-01-10T17:26:33.000Z,1.3
2023-01-10T17:27:49.000Z,1.5
2023-01-10T17:29:06.000Z,2
2023-01-10T17:30:21.000Z,1.6
2023-01-10T17:31:36.000Z,1.8
2023-01-10T17:32:52.000Z,1.6
2023-01-10T17:34:08.000Z,1.3